createdAt,value
2018-12-04T00:04:53.071Z,88.90
2018-12-04T00:07:22.732Z,90.50
2018-12-04T00:09:51.946Z,90.50
2018-12-04T00:12:21.727Z,90.80
2018-12-04T00:14:54.126Z,92.00
2018-12-04T00:17:23.747Z,89.70
2018-12-04T00:19:52.955Z,92.10
2018-12-04T00:22:25.896Z,92.20
2018-12-04T00:24:55.107Z,93.00
2018-12-04T00:27:24.601Z,94.40
2018-12-04T00:29:53.788Z,94.60
2018-12-04T00:32:24.235Z,95.60
2018-12-04T00:34:54.721Z,96.20
2018-12-04T00:37:23.972Z,96.60
2018-12-04T00:39:55.185Z,97.40
2018-12-04T00:42:24.479Z,98.00
2018-12-04T00:44:53.782Z,97.60
2018-12-04T00:47:23.900Z,97.70
2018-12-04T00:49:53.084Z,98.00
2018-12-04T00:52:22.654Z,98.00
2018-12-04T00:54:51.919Z,97.50
2018-12-04T00:57:21.116Z,97.80
2018-12-04T00:59:50.653Z,98.20
2018-12-04T01:02:20.713Z,98.30
2018-12-04T01:04:49.918Z,98.50
2018-12-04T01:07:20.308Z,97.70
2018-12-04T01:09:49.519Z,97.40
2018-12-04T01:12:20.566Z,96.40
2018-12-04T01:14:49.854Z,96.60
2018-12-04T01:17:19.300Z,96.80
2018-12-04T01:19:49.401Z,96.70
2018-12-04T01:22:18.779Z,96.70
2018-12-04T01:24:48.007Z,97.10
2018-12-04T01:27:17.316Z,97.20
2018-12-04T01:29:46.614Z,96.20
2018-12-04T01:32:16.642Z,96.80
2018-12-04T01:34:45.853Z,96.80
2018-12-04T01:37:15.088Z,97.90
2018-12-04T01:39:45.851Z,97.00
2018-12-04T01:42:15.832Z,96.30
2018-12-04T01:44:45.440Z,96.60
2018-12-04T01:47:15.429Z,95.40
2018-12-04T01:49:44.597Z,95.20
2018-12-04T01:52:15.490Z,94.80
2018-12-04T01:54:44.729Z,94.00
2018-12-04T01:57:14.182Z,94.40
2018-12-04T01:59:43.890Z,94.30
2018-12-04T02:02:15.457Z,94.10
2018-12-04T02:04:45.658Z,93.80
2018-12-04T02:07:14.838Z,93.00
2018-12-04T02:09:44.017Z,93.90
2018-12-04T02:12:13.277Z,93.50
2018-12-04T02:14:43.174Z,93.80
2018-12-04T02:17:13.468Z,93.10
2018-12-04T02:19:42.654Z,92.50
2018-12-04T02:22:11.931Z,92.30
2018-12-04T02:24:42.255Z,91.90
2018-12-04T02:27:11.470Z,91.70
2018-12-04T02:29:41.746Z,93.10
2018-12-04T02:32:12.748Z,92.20
2018-12-04T02:34:41.954Z,92.40
2018-12-04T02:37:11.172Z,91.90
2018-12-04T02:39:40.385Z,91.10
2018-12-04T02:42:09.631Z,91.90
2018-12-04T02:44:38.830Z,92.00
2018-12-04T02:47:08.578Z,90.70
2018-12-04T02:49:38.037Z,89.20
2018-12-04T02:52:07.472Z,90.00
2018-12-04T02:54:37.414Z,88.60
2018-12-04T02:57:06.605Z,89.70
2018-12-04T02:59:35.804Z,88.40
2018-12-04T03:02:05.748Z,87.60
2018-12-04T03:04:34.969Z,86.30
2018-12-04T03:07:04.555Z,86.50
2018-12-04T03:09:33.772Z,87.50
2018-12-04T03:12:03.137Z,86.30
2018-12-04T03:14:32.335Z,84.00
2018-12-04T03:17:01.992Z,85.30
2018-12-04T03:19:31.214Z,84.20
2018-12-04T03:22:10.001Z,83.10
2018-12-04T03:24:39.242Z,84.20
2018-12-04T03:27:13.030Z,82.50
2018-12-04T03:29:42.262Z,84.30
2018-12-04T03:32:12.875Z,85.80
2018-12-04T03:34:42.302Z,87.60
2018-12-04T03:37:11.608Z,84.80
2018-12-04T03:39:40.788Z,87.80
2018-12-04T03:42:10.304Z,85.70
2018-12-04T03:44:40.326Z,86.70
2018-12-04T03:47:10.345Z,86.10
2018-12-04T03:49:40.641Z,83.60
2018-12-04T03:52:09.965Z,83.80
2018-12-04T03:54:40.873Z,81.60
2018-12-04T03:57:10.442Z,83.20
2018-12-04T03:59:40.296Z,83.20
2018-12-04T04:02:12.043Z,83.10
2018-12-04T04:04:41.263Z,81.90
2018-12-04T04:07:11.659Z,87.10
2018-12-04T04:09:40.910Z,83.10
2018-12-04T04:12:11.771Z,86.10
2018-12-04T04:14:41.230Z,86.80
2018-12-04T04:17:11.841Z,83.20
2018-12-04T04:19:41.740Z,82.70
2018-12-04T04:22:12.342Z,82.70
2018-12-04T04:24:42.329Z,81.00
2018-12-04T04:27:11.511Z,82.20
2018-12-04T04:29:41.263Z,84.10
2018-12-04T04:32:12.724Z,86.20
2018-12-04T04:34:41.930Z,86.00
2018-12-04T04:37:11.149Z,85.40
2018-12-04T04:39:40.339Z,84.80
2018-12-04T04:42:10.561Z,84.60
2018-12-04T04:44:40.188Z,84.20
2018-12-04T04:47:10.746Z,81.90
2018-12-04T04:49:40.648Z,80.30
2018-12-04T04:52:10.526Z,78.40
2018-12-04T04:54:39.786Z,80.00
2018-12-04T04:57:09.711Z,80.90
2018-12-04T04:59:46.411Z,82.30
2018-12-04T05:02:17.514Z,81.80
2018-12-04T05:04:46.698Z,83.90
2018-12-04T05:07:16.397Z,83.10
2018-12-04T05:09:47.536Z,84.60
2018-12-04T05:12:17.047Z,87.90
2018-12-04T05:14:46.380Z,86.40
2018-12-04T05:17:16.777Z,88.10
2018-12-04T05:19:45.977Z,86.90
2018-12-04T05:22:15.285Z,85.70
2018-12-04T05:24:45.127Z,84.30
2018-12-04T05:27:14.333Z,86.60
2018-12-04T05:29:45.338Z,88.50
2018-12-04T05:32:22.314Z,86.20
2018-12-04T05:34:52.119Z,87.80
2018-12-04T05:37:21.318Z,87.60
2018-12-04T05:39:51.279Z,87.60
2018-12-04T05:42:20.788Z,89.00
2018-12-04T05:44:50.494Z,88.00
2018-12-04T05:47:20.382Z,85.40
2018-12-04T05:49:50.102Z,81.20
2018-12-04T05:52:21.435Z,80.20
2018-12-04T05:54:50.703Z,82.30
2018-12-04T05:57:19.930Z,78.10
2018-12-04T05:59:49.139Z,76.90
2018-12-04T06:02:20.224Z,79.70
2018-12-04T06:04:49.660Z,85.60
2018-12-04T06:07:19.022Z,83.60
2018-12-04T06:09:48.831Z,85.00
2018-12-04T06:12:19.368Z,88.70
2018-12-04T06:14:48.644Z,88.10
2018-12-04T06:17:19.994Z,76.50
2018-12-04T06:19:49.231Z,76.30
2018-12-04T06:22:18.524Z,83.60
2018-12-04T06:24:48.842Z,80.70
2018-12-04T06:27:19.592Z,85.50
2018-12-04T06:29:48.839Z,89.30
2018-12-04T06:32:19.305Z,91.50
2018-12-04T06:34:48.582Z,85.40
2018-12-04T06:37:18.278Z,85.60
2018-12-04T06:39:47.512Z,87.50
2018-12-04T06:42:17.927Z,88.90
2018-12-04T06:44:47.363Z,83.70
2018-12-04T06:47:18.003Z,77.90
2018-12-04T06:49:47.474Z,82.10
2018-12-04T06:52:17.453Z,78.20
2018-12-04T06:54:48.043Z,79.60
2018-12-04T06:57:18.017Z,80.40
2018-12-04T06:59:49.466Z,73.80
2018-12-04T07:02:20.500Z,76.60
2018-12-04T07:04:49.734Z,76.20
2018-12-04T07:07:19.833Z,76.60
2018-12-04T07:09:49.367Z,76.50
2018-12-04T07:12:18.953Z,75.50
2018-12-04T07:14:51.079Z,74.60
2018-12-04T07:17:23.382Z,83.00
2018-12-04T07:19:56.097Z,76.40
2018-12-04T07:22:30.847Z,76.90
2018-12-04T07:25:01.278Z,75.60
2018-12-04T07:30:37.101Z,79.30
2018-12-04T07:33:14.506Z,77.40
2018-12-04T07:35:45.325Z,78.80
2018-12-04T07:38:18.970Z,79.10
2018-12-04T07:40:49.670Z,77.50
2018-12-04T07:43:20.916Z,79.00
2018-12-04T07:45:50.497Z,82.30
2018-12-04T07:48:20.892Z,84.20
2018-12-04T07:50:53.099Z,80.50
2018-12-04T07:53:24.133Z,82.00
2018-12-04T07:55:55.063Z,83.10
2018-12-04T07:58:24.846Z,80.50
2018-12-04T08:00:55.582Z,79.50
2018-12-04T08:03:29.125Z,81.40
2018-12-04T08:06:05.382Z,76.80
2018-12-04T08:08:35.040Z,81.70
2018-12-04T08:11:05.455Z,86.60
2018-12-04T08:13:34.700Z,88.60
2018-12-04T08:16:04.428Z,88.00
2018-12-04T08:18:35.762Z,89.20
2018-12-04T08:21:05.076Z,86.10
2018-12-04T08:23:34.358Z,89.60
2018-12-04T08:26:05.667Z,86.30
2018-12-04T08:28:40.111Z,86.40
2018-12-04T08:31:09.967Z,80.40
2018-12-04T08:33:39.245Z,77.10
2018-12-04T08:36:08.935Z,82.60
2018-12-04T08:38:40.944Z,87.40
2018-12-04T08:41:11.223Z,82.80
2018-12-04T08:43:40.456Z,84.20
2018-12-04T08:46:10.694Z,80.20
2018-12-04T08:48:40.824Z,78.10
2018-12-04T08:51:10.748Z,81.70
2018-12-04T08:53:40.745Z,75.10
2018-12-04T08:56:11.378Z,76.50
2018-12-04T08:58:40.602Z,80.80
2018-12-04T09:01:12.089Z,80.40
2018-12-04T09:03:43.811Z,80.60
2018-12-04T09:06:13.626Z,72.00
2018-12-04T09:08:43.670Z,71.80
2018-12-04T09:11:19.967Z,70.90
2018-12-04T09:13:49.999Z,70.00
2018-12-04T09:19:13.874Z,73.60
2018-12-04T09:21:44.329Z,73.50
2018-12-04T09:24:13.588Z,74.00
2018-12-04T09:26:43.739Z,75.90
2018-12-04T09:29:14.019Z,77.50
2018-12-04T09:31:44.150Z,75.20
2018-12-04T09:34:13.398Z,73.40
2018-12-04T09:36:44.861Z,71.20
2018-12-04T09:39:17.269Z,71.90
2018-12-04T09:41:54.552Z,69.10
2018-12-04T09:44:24.299Z,74.30
2018-12-04T09:46:53.523Z,67.30
2018-12-04T09:49:23.671Z,64.10
2018-12-04T09:51:55.062Z,62.80
2018-12-04T09:54:24.549Z,67.00
2018-12-04T09:56:54.029Z,64.40
2018-12-04T09:59:23.244Z,61.20
2018-12-04T10:01:52.624Z,64.80
2018-12-04T10:04:22.214Z,61.60
2018-12-04T10:06:51.719Z,61.60
2018-12-04T10:09:25.760Z,61.50
2018-12-04T10:11:56.181Z,63.80
2018-12-04T10:14:26.396Z,63.80
2018-12-04T10:16:55.675Z,66.30
2018-12-04T10:19:24.911Z,61.50
2018-12-04T10:21:54.172Z,58.80
2018-12-04T10:24:23.458Z,60.80
2018-12-04T10:26:57.162Z,58.90
2018-12-04T10:29:26.842Z,62.10
2018-12-04T10:31:56.373Z,61.80
2018-12-04T10:34:26.327Z,60.00
2018-12-04T10:36:55.816Z,63.30
2018-12-04T10:40:24.016Z,62.70
2018-12-04T10:42:53.711Z,64.00
2018-12-04T10:45:23.945Z,65.20
2018-12-04T10:47:54.181Z,66.80
2018-12-04T10:50:23.629Z,62.10
2018-12-04T10:52:52.839Z,63.70
2018-12-04T10:55:22.354Z,57.90
2018-12-04T10:57:51.593Z,59.20
2018-12-04T11:00:26.081Z,60.30
2018-12-04T11:02:59.505Z,58.90
2018-12-04T11:05:28.728Z,57.00
2018-12-04T11:07:59.295Z,57.10
2018-12-04T11:10:28.565Z,50.70
2018-12-04T11:12:58.093Z,51.40
2018-12-04T11:15:27.350Z,50.20
2018-12-04T11:17:56.568Z,51.00
2018-12-04T11:20:25.847Z,48.90
2018-12-04T11:22:55.140Z,50.20
2018-12-04T11:25:24.780Z,49.30
2018-12-04T11:27:54.717Z,51.80
2018-12-04T11:30:24.698Z,50.80
2018-12-04T11:32:54.026Z,53.10
2018-12-04T11:35:23.617Z,53.80
2018-12-04T11:37:53.137Z,55.00
2018-12-04T11:40:22.586Z,53.10
2018-12-04T11:42:56.121Z,53.10
2018-12-04T11:45:35.672Z,52.30
2018-12-04T11:48:11.109Z,53.80
2018-12-04T11:50:41.049Z,53.90
2018-12-04T11:53:21.699Z,53.50
2018-12-04T11:55:59.390Z,55.00
2018-12-04T11:59:11.352Z,44.30
2018-12-04T13:32:22.214Z,47.10
2018-12-04T14:09:31.984Z,54.50
2018-12-04T14:14:52.846Z,52.90
2018-12-04T14:17:25.168Z,51.60
2018-12-04T14:19:55.282Z,54.10
2018-12-04T14:22:27.870Z,54.00
2018-12-04T14:24:58.615Z,53.20
2018-12-04T14:27:29.521Z,56.70
2018-12-04T14:29:59.931Z,54.70
2018-12-04T14:32:32.182Z,58.60
2018-12-04T14:35:10.010Z,54.60
2018-12-04T14:37:39.569Z,58.00
2018-12-04T14:40:10.487Z,58.00
2018-12-04T14:42:40.997Z,58.60
2018-12-04T14:45:12.522Z,56.80
2018-12-04T14:47:42.020Z,58.20
2018-12-04T14:50:12.601Z,60.20
2018-12-04T14:52:42.613Z,61.30
2018-12-04T14:55:12.353Z,65.40
2018-12-04T14:57:44.493Z,66.00
2018-12-04T15:00:15.856Z,66.30
2018-12-04T15:02:46.729Z,68.50
2018-12-04T15:05:19.002Z,72.40
2018-12-04T15:07:49.462Z,69.20
2018-12-04T15:10:19.419Z,72.90
2018-12-04T15:12:50.905Z,71.80
2018-12-04T15:21:23.523Z,67.90
2018-12-04T15:26:50.462Z,72.90
2018-12-04T15:32:35.982Z,70.60
2018-12-04T15:43:41.841Z,75.30
2018-12-04T15:52:05.319Z,72.90
2018-12-04T15:54:46.221Z,71.60
2018-12-04T15:57:24.161Z,68.50
2018-12-04T16:26:52.099Z,74.30
2018-12-04T16:29:28.846Z,76.90
2018-12-04T16:43:44.300Z,68.80
2018-12-04T16:54:53.578Z,75.40
2018-12-04T18:11:30.544Z,90.30
2018-12-04T18:14:08.654Z,92.50
2018-12-04T18:20:08.259Z,95.30
2018-12-04T18:22:51.075Z,95.60
2018-12-04T18:25:22.526Z,94.50
2018-12-04T18:30:41.444Z,91.00
2018-12-04T18:34:44.827Z,88.60
2018-12-04T18:37:31.210Z,89.90
2018-12-04T18:40:14.112Z,88.10
2018-12-04T18:42:49.789Z,86.80
2018-12-04T18:56:12.386Z,89.40
2018-12-04T19:03:09.018Z,93.40
2018-12-04T19:11:06.474Z,90.90
2018-12-04T19:13:59.753Z,91.90
2018-12-04T19:20:14.137Z,90.80
2018-12-04T19:23:18.752Z,90.70
2018-12-04T19:26:16.848Z,90.90
2018-12-04T19:29:11.465Z,90.10
2018-12-04T19:31:58.749Z,89.70
2018-12-04T19:34:36.634Z,90.20
2018-12-04T19:37:23.496Z,90.30
2018-12-04T19:52:09.784Z,94.10
2018-12-04T19:54:51.142Z,94.70
2018-12-04T20:01:03.352Z,95.20
2018-12-04T20:06:45.970Z,95.60
2018-12-04T20:09:40.409Z,94.70
2018-12-04T20:25:13.021Z,94.20
2018-12-04T20:27:46.222Z,92.60
2018-12-04T20:30:20.202Z,96.70
2018-12-04T20:32:52.045Z,97.80
2018-12-04T20:35:23.431Z,97.80
2018-12-04T20:37:57.838Z,97.40
2018-12-04T20:40:32.002Z,94.40
2018-12-04T20:45:57.276Z,93.80
2018-12-04T20:48:29.454Z,92.90
2018-12-04T20:51:06.515Z,93.50
2018-12-04T20:53:38.817Z,93.40
2018-12-04T20:58:45.148Z,91.70
2018-12-04T21:01:17.847Z,92.70
2018-12-04T21:03:49.256Z,94.70
2018-12-04T21:06:21.583Z,94.00
2018-12-04T21:08:52.281Z,93.50
2018-12-04T21:11:26.263Z,94.20
2018-12-04T21:13:57.129Z,93.40
2018-12-04T21:16:27.689Z,93.20
2018-12-04T21:18:58.021Z,93.70
2018-12-04T21:21:30.190Z,93.40
2018-12-04T21:24:00.584Z,92.60
2018-12-04T21:26:36.570Z,92.00
2018-12-04T21:29:09.437Z,92.00
2018-12-04T21:31:44.895Z,91.40
2018-12-04T21:35:18.579Z,90.30
2018-12-04T21:37:59.730Z,91.20
2018-12-04T21:40:36.547Z,92.70
2018-12-04T21:43:18.404Z,93.60
2018-12-04T21:45:53.393Z,94.90
2018-12-04T21:48:30.710Z,95.10
2018-12-04T21:51:00.448Z,95.70
2018-12-04T21:53:32.794Z,95.00
2018-12-04T21:56:04.285Z,94.00
2018-12-04T21:58:36.591Z,94.90
2018-12-04T22:01:11.086Z,95.00
2018-12-04T22:03:43.868Z,95.50
2018-12-04T22:06:17.496Z,95.90
2018-12-04T22:09:00.406Z,95.90
2018-12-04T22:11:37.997Z,94.80
2018-12-04T22:14:10.074Z,92.70
2018-12-04T22:16:42.944Z,92.00
2018-12-04T22:19:21.387Z,91.00
2018-12-04T22:22:01.366Z,90.50
2018-12-04T22:24:32.231Z,91.50
2018-12-04T22:27:03.870Z,88.20
2018-12-04T22:29:44.085Z,88.30
2018-12-04T22:32:17.142Z,90.30
2018-12-04T22:35:03.412Z,89.40
2018-12-04T22:37:36.399Z,91.10
2018-12-04T22:40:14.814Z,91.00
2018-12-04T22:45:29.425Z,90.80
2018-12-04T22:48:08.718Z,92.40
2018-12-04T22:50:43.134Z,91.80
2018-12-04T22:53:15.453Z,90.70
2018-12-04T22:55:56.155Z,90.80
2018-12-04T22:58:30.672Z,90.30
2018-12-04T23:01:07.016Z,89.90
2018-12-04T23:03:39.621Z,88.30
2018-12-04T23:06:13.917Z,88.10
2018-12-04T23:08:52.648Z,89.60
2018-12-04T23:11:25.008Z,91.00
2018-12-04T23:13:57.031Z,91.60
2018-12-04T23:16:32.670Z,91.50
2018-12-04T23:19:02.004Z,92.40
2018-12-04T23:21:32.482Z,93.40
2018-12-04T23:24:06.963Z,94.00
2018-12-04T23:26:37.693Z,94.40
2018-12-04T23:29:10.344Z,93.30
2018-12-04T23:31:43.951Z,91.60
2018-12-04T23:34:17.792Z,90.80
2018-12-04T23:36:49.022Z,90.30
2018-12-04T23:39:20.696Z,90.40
2018-12-04T23:44:28.019Z,89.90
2018-12-04T23:47:02.614Z,90.50
2018-12-04T23:49:35.060Z,90.40
2018-12-04T23:52:26.934Z,86.40
2018-12-04T23:55:01.802Z,88.00
2018-12-04T23:57:37.269Z,90.10
